Terminal Aerodrome Forecast
Issued by NWS

Home | Current Version | Previous Version | Graphics & Text | Print | Product List | Glossary On
Versions: 1 2 3 4 5 6 7 8 9 10 11 12 13 14 15 16
000
FTUS43 KUNR 270500
TAFGCC
TAF
KGCC 270520Z 2706/2806 24010KT P6SM BKN090
      TEMPO 2707/2709 BKN015=

USA.gov is the U.S. government's official web portal to all federal, state and local government web resources and services.